Time;durP1;ratioP1;P1;durP2;ratioP2;P2;SDS_P1;SDS_P2;PMS_P1;PMS_P2;Temp;Humidity;BMP_temperature;BMP_pressure;BME280_temperature;BME280_humidity;BME280_pressure;Samples;Min_cycle;Max_cycle;Signal;HPM_P1;HPM_P2
2022/07/26 00:00:01;;;;;;;12.55;7.50;;;;;;;17.51;100.00;95513.44;5065957;28;20098;-79
2022/07/26 00:02:26;;;;;;;14.57;7.35;;;;;;;17.56;100.00;95526.59;5070388;28;20045;-80
2022/07/26 00:04:52;;;;;;;17.38;7.25;;;;;;;17.54;100.00;95528.75;5069447;28;20043;-79
2022/07/26 00:07:17;;;;;;;16.55;7.70;;;;;;;17.54;100.00;95528.75;5069478;28;20443;-79
2022/07/26 00:09:43;;;;;;;14.80;7.88;;;;;;;17.57;100.00;95506.84;5057473;28;20068;-79
2022/07/26 00:12:09;;;;;;;15.27;7.97;;;;;;;17.58;100.00;95508.41;5062942;28;20045;-79
2022/07/26 00:14:34;;;;;;;19.05;7.78;;;;;;;17.65;100.00;95519.38;5057917;28;20115;-79
2022/07/26 00:17:00;;;;;;;16.42;7.30;;;;;;;17.61;100.00;95513.13;5062974;28;20498;-79
2022/07/26 00:19:26;;;;;;;15.02;7.35;;;;;;;17.60;100.00;95500.94;5063052;28;20426;-79
2022/07/26 00:22:32;;;;;;;16.17;7.40;;;;;;;17.58;100.00;95503.09;5069953;28;20105;-79
2022/07/26 00:24:38;;;;;;;13.77;7.43;;;;;;;17.48;100.00;95509.50;5065979;28;20391;-79
2022/07/26 00:27:04;;;;;;;13.23;7.05;;;;;;;17.49;100.00;95517.19;5068800;28;20037;-79
2022/07/26 00:29:30;;;;;;;16.38;7.43;;;;;;;17.54;100.00;95523.44;5057316;28;20045;-79
2022/07/26 00:31:56;;;;;;;12.35;7.28;;;;;;;17.40;100.00;95524.38;5067617;28;20045;-79
2022/07/26 00:34:21;;;;;;;11.63;7.18;;;;;;;17.37;100.00;95517.03;5064710;28;20173;-79
2022/07/26 00:36:47;;;;;;;11.00;6.38;;;;;;;17.31;100.00;95512.94;5057736;28;20041;-80
2022/07/26 00:39:12;;;;;;;16.65;7.68;;;;;;;17.28;100.00;95477.16;5069307;28;20052;-79
2022/07/26 00:41:38;;;;;;;16.83;7.75;;;;;;;17.29;100.00;95467.28;5074748;28;20040;-79
2022/07/26 00:44:03;;;;;;;16.85;7.88;;;;;;;17.32;100.00;95453.34;5071846;28;20103;-78
2022/07/26 00:46:29;;;;;;;11.32;6.88;;;;;;;17.32;100.00;95432.06;5070082;28;20045;-78
2022/07/26 00:48:54;;;;;;;15.63;7.35;;;;;;;17.37;100.00;95423.94;5068914;28;20256;-78
2022/07/26 00:51:20;;;;;;;12.80;7.05;;;;;;;17.40;100.00;95418.00;5061111;28;20093;-79
2022/07/26 00:53:47;;;;;;;13.55;7.30;;;;;;;17.36;100.00;95421.59;5069109;28;20037;-79
2022/07/26 00:56:14;;;;;;;13.02;6.90;;;;;;;17.42;100.00;95426.41;5070210;28;20067;-79
2022/07/26 00:58:40;;;;;;;11.93;6.60;;;;;;;17.33;100.00;95428.31;5064472;28;20044;-79
2022/07/26 01:01:06;;;;;;;12.65;6.82;;;;;;;17.35;100.00;95420.78;5072891;28;20040;-79
2022/07/26 01:03:31;;;;;;;15.30;6.70;;;;;;;17.34;100.00;95419.25;5073850;28;20039;-79
2022/07/26 01:05:58;;;;;;;9.88;6.55;;;;;;;17.33;100.00;95425.66;5078117;28;20083;-79
2022/07/26 01:08:23;;;;;;;11.38;6.57;;;;;;;17.32;100.00;95432.06;5073057;28;20032;-79
2022/07/26 01:10:50;;;;;;;11.00;6.47;;;;;;;17.30;100.00;95418.31;5070715;28;20398;-79
2022/07/26 01:13:21;;;;;;;13.35;6.47;;;;;;;17.28;100.00;95417.84;5064319;28;20056;-80
2022/07/26 01:15:48;;;;;;;10.82;6.40;;;;;;;17.18;100.00;95410.19;5069271;28;20036;-79
2022/07/26 01:18:13;;;;;;;16.00;6.80;;;;;;;17.22;100.00;95414.53;5072038;28;20052;-79
2022/07/26 01:20:40;;;;;;;10.18;6.28;;;;;;;17.20;100.00;95418.63;5066669;28;20051;-79
2022/07/26 01:23:07;;;;;;;9.77;6.47;;;;;;;17.29;100.00;95422.06;5066533;28;20037;-79
2022/07/26 01:25:34;;;;;;;13.65;6.30;;;;;;;17.28;100.00;95423.16;5070595;28;20044;-80
2022/07/26 01:27:59;;;;;;;12.13;6.22;;;;;;;17.27;100.00;95419.72;5070080;28;20040;-79
2022/07/26 01:30:25;;;;;;;8.95;5.35;;;;;;;17.25;100.00;95418.47;5068092;28;20093;-79
2022/07/26 01:32:51;;;;;;;12.45;5.88;;;;;;;17.24;100.00;95425.66;5073048;28;20414;-79
2022/07/26 01:35:16;;;;;;;10.52;5.47;;;;;;;17.18;100.00;95418.16;5064107;28;20119;-79
2022/07/26 01:37:42;;;;;;;9.50;5.95;;;;;;;17.18;100.00;95416.28;5055086;28;20384;-79
2022/07/26 01:40:09;;;;;;;12.40;6.75;;;;;;;17.21;100.00;95417.53;5071844;28;20465;-79
2022/07/26 01:42:34;;;;;;;9.32;5.68;;;;;;;17.26;100.00;95417.38;5063233;28;20051;-79
2022/07/26 01:45:00;;;;;;;11.48;6.18;;;;;;;17.20;100.00;95410.66;5071690;28;20040;-78
2022/07/26 01:47:26;;;;;;;10.38;5.72;;;;;;;17.11;100.00;95418.63;5075091;28;20067;-78
2022/07/26 01:49:51;;;;;;;11.00;5.85;;;;;;;17.20;100.00;95413.31;5069170;28;20048;-78
2022/07/26 01:52:17;;;;;;;11.38;6.32;;;;;;;17.23;100.00;95423.31;5072985;28;20043;-78
2022/07/26 01:54:43;;;;;;;10.10;6.30;;;;;;;17.16;100.00;95423.03;5065946;28;20045;-78
2022/07/26 01:57:08;;;;;;;9.57;6.15;;;;;;;17.16;100.00;95423.03;5073031;28;20139;-78
2022/07/26 01:59:34;;;;;;;11.38;5.65;;;;;;;17.14;100.00;95421.44;5071127;28;20075;-79
2022/07/26 02:01:59;;;;;;;9.65;6.13;;;;;;;17.16;100.00;95412.38;5072354;28;20094;-79
2022/07/26 02:07:09;;;;;;;9.30;5.28;;;;;;;17.17;100.00;95408.59;5068401;28;20063;-78
2022/07/26 02:09:35;;;;;;;10.32;5.60;;;;;;;17.17;100.00;95413.94;5065102;28;20037;-78
2022/07/26 02:12:01;;;;;;;8.23;5.20;;;;;;;17.22;100.00;95416.44;5069798;28;20093;-79
2022/07/26 02:14:27;;;;;;;10.95;5.63;;;;;;;17.17;100.00;95409.41;5067795;28;20509;-80
2022/07/26 02:16:58;;;;;;;9.68;5.30;;;;;;;17.24;100.00;95403.59;5073674;28;20041;-79
2022/07/26 02:19:25;;;;;;;9.10;5.20;;;;;;;17.20;100.00;95408.78;5071367;28;20044;-79
2022/07/26 02:21:51;;;;;;;9.32;5.63;;;;;;;17.23;100.00;95412.69;5070849;28;20044;-79
2022/07/26 02:24:16;;;;;;;9.38;5.50;;;;;;;17.17;100.00;95405.94;5068688;28;20052;-80
2022/07/26 02:26:42;;;;;;;12.13;5.68;;;;;;;17.18;100.00;95415.50;5070531;28;20060;-79
2022/07/26 02:29:07;;;;;;;9.88;5.05;;;;;;;17.24;100.00;95427.53;5068906;28;20062;-79
2022/07/26 02:31:33;;;;;;;8.57;5.28;;;;;;;17.27;100.00;95426.94;5068601;28;20041;-79
2022/07/26 02:33:58;;;;;;;9.35;5.80;;;;;;;17.18;100.00;95420.81;5057919;28;20044;-79
2022/07/26 02:36:24;;;;;;;10.65;5.75;;;;;;;17.16;100.00;95423.03;5071549;28;20075;-78
2022/07/26 02:38:49;;;;;;;8.15;4.72;;;;;;;17.22;100.00;95432.41;5069459;28;20086;-79
2022/07/26 02:41:15;;;;;;;10.27;5.75;;;;;;;17.34;100.00;95419.25;5066186;28;20044;-79
2022/07/26 02:43:41;;;;;;;10.90;5.50;;;;;;;17.28;100.00;95420.50;5070427;28;20502;-79
2022/07/26 02:46:06;;;;;;;10.40;5.18;;;;;;;17.35;100.00;95426.13;5070258;28;20049;-79
2022/07/26 02:48:32;;;;;;;10.18;6.13;;;;;;;17.36;100.00;95426.91;5069347;28;20119;-79
2022/07/26 02:50:57;;;;;;;9.63;5.15;;;;;;;17.34;100.00;95424.56;5064256;28;20044;-79
2022/07/26 02:53:23;;;;;;;10.90;4.90;;;;;;;17.27;100.00;95421.59;5070000;28;20090;-80
2022/07/26 02:55:48;;;;;;;9.80;5.07;;;;;;;17.27;100.00;95434.91;5070438;28;20044;-79
2022/07/26 02:58:14;;;;;;;11.60;5.28;;;;;;;17.22;100.00;95432.41;5071075;28;20125;-79
2022/07/26 03:00:40;;;;;;;8.88;4.85;;;;;;;17.23;100.00;95433.97;5065591;28;20090;-79
2022/07/26 03:03:05;;;;;;;11.35;5.13;;;;;;;17.33;100.00;95428.31;5069245;28;20044;-79
2022/07/26 03:05:31;;;;;;;7.80;5.00;;;;;;;17.30;100.00;95423.63;5071454;28;20556;-79
2022/07/26 03:07:56;;;;;;;11.63;5.63;;;;;;;17.25;100.00;95421.13;5071012;28;20047;-79
2022/07/26 03:10:21;;;;;;;11.75;5.22;;;;;;;17.27;100.00;95424.28;5065310;28;20417;-79
2022/07/26 03:12:47;;;;;;;9.15;5.18;;;;;;;17.27;100.00;95418.94;5056560;28;20090;-79
2022/07/26 03:15:12;;;;;;;10.32;5.13;;;;;;;17.31;100.00;95414.53;5063989;28;20047;-79
2022/07/26 03:17:38;;;;;;;10.55;5.40;;;;;;;17.33;100.00;95417.69;5067396;28;20070;-79
2022/07/26 03:20:05;;;;;;;12.63;5.30;;;;;;;17.29;100.00;95412.19;5064225;28;20067;-79
2022/07/26 03:22:31;;;;;;;9.48;5.25;;;;;;;17.28;100.00;95415.16;5069750;28;20040;-79
2022/07/26 03:24:57;;;;;;;9.48;5.25;;;;;;;17.30;100.00;95424.41;5060387;28;20064;-79
2022/07/26 03:27:22;;;;;;;10.15;5.30;;;;;;;17.24;100.00;95419.56;5067431;28;20033;-80
2022/07/26 03:29:48;;;;;;;13.25;5.72;;;;;;;17.21;100.00;95420.19;5070877;28;20041;-79
2022/07/26 03:32:13;;;;;;;12.65;5.80;;;;;;;17.26;100.00;95422.69;5062367;28;20063;-79
2022/07/26 03:34:39;;;;;;;8.77;5.70;;;;;;;17.32;100.00;95426.75;5064333;28;20036;-79
2022/07/26 03:37:04;;;;;;;9.32;5.45;;;;;;;17.24;100.00;95424.88;5070302;28;20048;-79
2022/07/26 03:39:29;;;;;;;8.68;5.18;;;;;;;17.26;100.00;95422.69;5068852;28;20058;-79
2022/07/26 03:41:55;;;;;;;8.32;5.70;;;;;;;17.35;100.00;95420.78;5062289;28;20508;-79
2022/07/26 03:44:20;;;;;;;12.75;5.15;;;;;;;17.37;100.00;95429.25;5072560;28;20037;-78
2022/07/26 03:46:46;;;;;;;8.95;5.80;;;;;;;17.32;100.00;95421.44;5064626;28;20032;-78
2022/07/26 03:49:11;;;;;;;8.63;5.30;;;;;;;17.35;100.00;95423.47;5072359;28;20413;-78
2022/07/26 03:51:37;;;;;;;11.23;5.93;;;;;;;17.38;100.00;95420.16;5062185;28;20040;-77
2022/07/26 03:54:02;;;;;;;11.65;6.00;;;;;;;17.33;100.00;95417.69;5069269;28;20090;-78
2022/07/26 03:56:30;;;;;;;9.23;5.43;;;;;;;17.27;100.00;95418.94;5065744;28;20041;-79
2022/07/26 03:58:58;;;;;;;14.57;5.97;;;;;;;17.24;100.00;95419.56;5066832;28;20095;-78
2022/07/26 04:01:24;;;;;;;13.02;6.28;;;;;;;17.26;100.00;95412.06;5068236;28;20048;-78
2022/07/26 04:03:50;;;;;;;10.38;5.72;;;;;;;17.24;100.00;95408.91;5070818;28;20051;-78
2022/07/26 04:06:15;;;;;;;12.10;6.20;;;;;;;17.23;100.00;95407.38;5072334;28;20041;-77
2022/07/26 04:08:41;;;;;;;8.73;5.47;;;;;;;17.23;100.00;95407.38;5066940;28;20045;-77
2022/07/26 04:11:06;;;;;;;8.60;5.53;;;;;;;17.22;100.00;95411.13;5068100;28;20040;-79
2022/07/26 04:13:32;;;;;;;10.52;6.10;;;;;;;17.26;100.00;95420.03;5073007;28;20032;-78
2022/07/26 04:15:57;;;;;;;8.65;5.72;;;;;;;17.31;100.00;95419.84;5074491;28;20048;-79
2022/07/26 04:18:23;;;;;;;9.85;5.30;;;;;;;17.28;100.00;95423.16;5073368;28;20051;-78
2022/07/26 04:20:48;;;;;;;10.50;5.93;;;;;;;17.31;100.00;95430.50;5061973;28;20043;-78
2022/07/26 04:23:13;;;;;;;12.43;6.03;;;;;;;17.20;100.00;95426.63;5069980;28;20506;-78
2022/07/26 04:25:40;;;;;;;9.75;6.53;;;;;;;17.26;100.00;95428.00;5069213;28;20076;-78
2022/07/26 04:28:05;;;;;;;10.85;5.65;;;;;;;17.29;100.00;95427.38;5070414;28;20036;-78
2022/07/26 04:30:31;;;;;;;13.40;6.28;;;;;;;17.21;100.00;95428.16;5069346;28;20086;-78
2022/07/26 04:32:57;;;;;;;11.68;5.95;;;;;;;17.24;100.00;95430.19;5069995;28;20086;-79
2022/07/26 04:35:22;;;;;;;11.02;6.07;;;;;;;17.31;100.00;95441.13;5075077;28;20041;-78
2022/07/26 04:37:47;;;;;;;11.35;5.97;;;;;;;17.41;100.00;95440.84;5075045;28;20088;-79
2022/07/26 04:40:19;;;;;;;11.15;5.50;;;;;;;17.41;100.00;95440.84;5067186;28;20078;-79
2022/07/26 04:42:45;;;;;;;11.43;6.30;;;;;;;17.39;100.00;95443.00;5073721;28;20571;-78
2022/07/26 04:45:12;;;;;;;9.77;5.90;;;;;;;17.39;100.00;95439.59;5068772;28;20309;-79
2022/07/26 04:47:48;;;;;;;10.38;5.40;;;;;;;17.42;100.00;95447.72;5069142;28;20041;-78
2022/07/26 04:50:13;;;;;;;11.63;6.00;;;;;;;17.40;100.00;95447.25;5066330;28;20040;-78
2022/07/26 04:52:39;;;;;;;10.00;5.40;;;;;;;17.38;100.00;95441.44;5074052;28;20091;-78
2022/07/26 04:55:06;;;;;;;11.57;6.70;;;;;;;17.39;100.00;95448.34;5090283;28;20036;-78
2022/07/26 04:57:32;;;;;;;11.10;6.10;;;;;;;17.37;100.00;95447.88;5063791;28;20037;-78
2022/07/26 04:59:58;;;;;;;11.82;6.10;;;;;;;17.32;100.00;95448.03;5087235;28;20051;-78
2022/07/26 05:02:23;;;;;;;9.40;5.93;;;;;;;17.38;100.00;95451.31;5068709;28;20490;-78
2022/07/26 05:04:49;;;;;;;10.52;6.15;;;;;;;17.40;100.00;95457.13;5072103;28;20141;-78
2022/07/26 05:07:14;;;;;;;10.82;6.25;;;;;;;17.45;100.00;95457.72;5070083;28;20667;-78
2022/07/26 05:09:40;;;;;;;11.88;6.13;;;;;;;17.44;100.00;95456.16;5069302;28;20033;-79
2022/07/26 05:12:05;;;;;;;10.77;6.20;;;;;;;17.46;100.00;95448.66;5061943;28;20130;-79
2022/07/26 05:14:31;;;;;;;14.60;6.47;;;;;;;17.46;100.00;95448.66;5072335;28;20040;-78
2022/07/26 05:16:56;;;;;;;11.38;6.35;;;;;;;17.49;100.00;95453.31;5068586;28;20048;-78
2022/07/26 05:19:22;;;;;;;12.02;5.90;;;;;;;17.46;100.00;95448.66;5073629;28;20063;-78
2022/07/26 05:21:47;;;;;;;16.33;7.75;;;;;;;17.43;100.00;95459.91;5070841;28;20056;-78
2022/07/26 05:24:13;;;;;;;12.77;6.53;;;;;;;17.45;100.00;95463.03;5074467;28;20426;-79
2022/07/26 05:26:38;;;;;;;13.68;6.50;;;;;;;17.51;100.00;95460.22;5068141;28;20489;-78
2022/07/26 05:29:04;;;;;;;9.45;5.88;;;;;;;17.48;100.00;95456.31;5072902;28;20096;-78
2022/07/26 05:31:29;;;;;;;11.38;6.30;;;;;;;17.45;100.00;95452.38;5073336;28;20033;-80
2022/07/26 05:33:55;;;;;;;13.90;6.75;;;;;;;17.48;100.00;95462.44;5072020;28;20037;-77
2022/07/26 05:36:21;;;;;;;10.88;5.85;;;;;;;17.48;100.00;95457.09;5069895;28;20036;-77
2022/07/26 05:38:46;;;;;;;8.40;5.60;;;;;;;17.53;100.00;95468.66;5069552;28;20513;-77
2022/07/26 05:41:12;;;;;;;10.30;5.88;;;;;;;17.52;100.00;95461.78;5071381;28;20040;-77
2022/07/26 05:43:37;;;;;;;12.93;5.47;;;;;;;17.44;100.00;95460.69;5072797;28;20514;-77
2022/07/26 05:46:03;;;;;;;10.68;6.22;;;;;;;17.47;100.00;95460.09;5069031;28;20039;-77
2022/07/26 05:48:28;;;;;;;10.95;5.57;;;;;;;17.55;100.00;95461.16;5069201;28;20173;-78
2022/07/26 05:50:54;;;;;;;10.60;6.07;;;;;;;17.57;100.00;95459.75;5071372;28;20060;-77
2022/07/26 05:53:19;;;;;;;12.55;5.95;;;;;;;17.57;100.00;95464.28;5069616;28;20048;-77
2022/07/26 05:55:44;;;;;;;8.40;5.40;;;;;;;17.63;100.00;95468.34;5065237;28;20045;-76
2022/07/26 05:58:10;;;;;;;8.90;5.80;;;;;;;17.60;100.00;95469.75;5067833;28;20072;-77
2022/07/26 06:00:35;;;;;;;13.60;5.53;;;;;;;17.60;100.00;95469.00;5064778;28;20148;-77
2022/07/26 06:03:20;;;;;;;10.30;5.60;;;;;;;17.59;100.00;95478.06;5069746;28;20043;-77
2022/07/26 06:05:54;;;;;;;9.75;5.40;;;;;;;17.43;100.00;95470.56;5068516;28;20040;-78
2022/07/26 06:08:20;;;;;;;9.33;5.10;;;;;;;17.28;100.00;95463.03;5071763;28;20047;-77
2022/07/26 06:10:49;;;;;;;14.00;5.15;;;;;;;17.21;100.00;95452.91;5070327;28;20440;-77
2022/07/26 06:13:16;;;;;;;13.98;4.95;;;;;;;16.84;100.00;95470.16;5066567;28;20052;-77
2022/07/26 06:15:42;;;;;;;11.32;4.57;;;;;;;16.74;100.00;95471.25;5066923;28;20062;-77
2022/07/26 06:18:08;;;;;;;11.32;4.75;;;;;;;16.74;100.00;95480.00;5068208;28;20048;-78
2022/07/26 06:20:40;;;;;;;12.18;4.88;;;;;;;16.70;100.00;95471.09;5064634;28;20075;-77
2022/07/26 06:23:06;;;;;;;10.68;5.50;;;;;;;16.76;100.00;95469.06;5069223;28;20028;-77
2022/07/26 06:25:31;;;;;;;10.63;5.38;;;;;;;16.79;100.00;95465.78;5071850;28;20037;-77
2022/07/26 06:27:57;;;;;;;13.52;5.80;;;;;;;16.74;100.00;95472.03;5074013;28;20410;-77
2022/07/26 06:30:23;;;;;;;9.45;5.20;;;;;;;16.79;100.00;95469.25;5062097;28;20044;-78
2022/07/26 06:32:48;;;;;;;8.52;5.13;;;;;;;16.82;100.00;95472.34;5070677;28;20036;-78
2022/07/26 06:35:14;;;;;;;8.23;5.40;;;;;;;16.93;100.00;95476.31;5071420;28;20044;-78
2022/07/26 06:37:41;;;;;;;9.00;5.18;;;;;;;17.01;100.00;95475.56;5070714;28;20048;-77
2022/07/26 06:40:09;;;;;;;9.68;5.45;;;;;;;17.11;100.00;95469.13;5072673;28;20052;-77
2022/07/26 06:42:35;;;;;;;15.40;5.47;;;;;;;17.16;100.00;95476.97;5064422;28;20685;-77
2022/07/26 06:45:01;;;;;;;10.10;6.03;;;;;;;17.16;100.00;95486.84;5072645;28;20108;-77
2022/07/26 06:47:27;;;;;;;12.23;6.68;;;;;;;17.18;100.00;95481.97;5071816;28;20383;-78
2022/07/26 06:49:52;;;;;;;12.73;6.30;;;;;;;17.31;100.00;95483.69;5066719;28;20041;-77
2022/07/26 06:52:18;;;;;;;10.10;6.05;;;;;;;17.37;100.00;95487.78;5069120;28;20545;-77
2022/07/26 06:54:44;;;;;;;9.40;5.75;;;;;;;17.43;100.00;95481.19;5060028;28;20045;-77
2022/07/26 06:57:09;;;;;;;17.50;7.97;;;;;;;17.41;100.00;95488.72;5056939;28;20044;-78
2022/07/26 06:59:35;;;;;;;14.65;7.20;;;;;;;17.40;100.00;95487.16;5063146;28;20048;-77
2022/07/26 07:02:01;;;;;;;10.80;5.90;;;;;;;17.34;100.00;95485.75;5066587;28;20489;-76
2022/07/26 07:04:31;;;;;;;12.82;6.13;;;;;;;17.35;100.00;95489.94;5069220;28;20040;-76
2022/07/26 07:07:01;;;;;;;9.82;5.75;;;;;;;17.35;100.00;95489.94;5067241;28;20403;-76
2022/07/26 07:09:27;;;;;;;9.30;5.50;;;;;;;17.36;100.00;95486.22;5061907;28;20047;-75
2022/07/26 07:11:53;;;;;;;10.77;5.82;;;;;;;17.39;100.00;95485.56;5068349;28;20056;-76
2022/07/26 07:14:18;;;;;;;11.73;5.47;;;;;;;17.47;100.00;95492.78;5065455;28;20075;-76
2022/07/26 07:16:44;;;;;;;8.63;6.07;;;;;;;17.51;100.00;95494.81;5067629;28;20119;-77
2022/07/26 07:19:09;;;;;;;9.45;6.25;;;;;;;17.49;100.00;95490.56;5067424;28;20055;-78
2022/07/26 07:21:35;;;;;;;11.20;5.57;;;;;;;17.48;100.00;95494.34;5082465;28;20045;-77
2022/07/26 07:24:00;;;;;;;9.82;5.70;;;;;;;17.37;100.00;95490.44;5069851;28;20048;-77
2022/07/26 07:26:26;;;;;;;13.48;6.28;;;;;;;17.40;100.00;95502.34;5069061;28;20059;-78
2022/07/26 07:28:51;;;;;;;12.65;6.20;;;;;;;17.37;100.00;95502.94;5066940;28;20040;-80
2022/07/26 07:31:17;;;;;;;15.30;6.03;;;;;;;17.28;100.00;95494.97;5066118;28;20494;-77
2022/07/26 07:33:42;;;;;;;17.83;5.95;;;;;;;17.43;100.00;95502.47;5064436;28;20414;-78
2022/07/26 07:36:08;;;;;;;13.20;6.05;;;;;;;17.36;100.00;95504.81;5063496;28;20044;-79
2022/07/26 07:38:33;;;;;;;12.23;6.60;;;;;;;17.30;100.00;95506.09;5067289;28;20040;-80
2022/07/26 07:40:59;;;;;;;9.88;5.85;;;;;;;17.21;100.00;95510.59;5063710;28;20043;-80
2022/07/26 07:43:24;;;;;;;9.40;6.03;;;;;;;17.10;100.00;95505.59;5067181;28;20044;-80
2022/07/26 07:45:50;;;;;;;9.45;5.60;;;;;;;16.98;100.00;95518.69;5065443;28;20665;-79
2022/07/26 07:48:15;;;;;;;10.00;5.22;;;;;;;16.88;100.00;95518.97;5067239;28;20044;-79
2022/07/26 07:50:41;;;;;;;10.10;5.82;;;;;;;16.69;100.00;95517.34;5066310;28;20115;-79
2022/07/26 07:53:06;;;;;;;11.82;5.88;;;;;;;16.60;100.00;95524.50;5072425;28;20071;-82
2022/07/26 07:55:32;;;;;;;11.05;5.32;;;;;;;16.61;100.00;95520.78;5060955;28;20478;-81
2022/07/26 07:57:57;;;;;;;8.82;5.50;;;;;;;16.65;100.00;95521.72;5064840;28;20033;-81
2022/07/26 08:00:24;;;;;;;12.07;5.18;;;;;;;16.70;100.00;95518.91;5065425;28;20037;-80
2022/07/26 08:02:49;;;;;;;10.40;5.15;;;;;;;16.78;100.00;95526.13;5067355;28;20075;-81
2022/07/26 08:05:15;;;;;;;8.88;4.90;;;;;;;16.95;100.00;95521.97;5064794;28;20048;-79
2022/07/26 08:07:41;;;;;;;7.50;4.47;;;;;;;17.01;100.00;95512.78;5068698;28;20041;-79
2022/07/26 08:10:07;;;;;;;9.88;4.88;;;;;;;16.97;100.00;95511.81;5070236;28;20072;-79
2022/07/26 08:12:32;;;;;;;10.88;5.38;;;;;;;17.03;100.00;95520.44;5067547;28;20490;-79
2022/07/26 08:14:58;;;;;;;10.50;4.80;;;;;;;17.11;100.00;95523.09;5072328;28;20048;-78
2022/07/26 08:17:23;;;;;;;9.25;4.95;;;;;;;17.14;100.00;95533.13;5072641;28;20044;-78
2022/07/26 08:19:49;;;;;;;10.30;5.25;;;;;;;17.09;100.00;95537.81;5069317;28;20055;-77
2022/07/26 08:22:14;;;;;;;8.15;5.55;;;;;;;17.11;100.00;95533.75;5073380;28;20118;-78
2022/07/26 08:24:40;;;;;;;10.60;6.28;;;;;;;17.21;100.00;95538.00;5073039;28;20098;-78
2022/07/26 08:27:06;;;;;;;9.38;4.95;;;;;;;17.17;100.00;95547.69;5072424;28;20052;-78
2022/07/26 08:29:32;;;;;;;10.27;5.55;;;;;;;17.17;100.00;95541.56;5081391;28;20032;-77
2022/07/26 08:31:57;;;;;;;10.57;5.00;;;;;;;17.00;100.00;95537.78;5068320;28;20047;-79
2022/07/26 08:34:23;;;;;;;10.43;5.45;;;;;;;16.91;100.00;95544.94;5071761;28;20086;-80
2022/07/26 08:36:48;;;;;;;14.20;5.07;;;;;;;16.88;100.00;95545.56;5068888;28;20504;-82
2022/07/26 08:39:15;;;;;;;7.88;4.97;;;;;;;16.88;100.00;95545.56;5069553;28;20047;-80
2022/07/26 08:41:41;;;;;;;9.10;5.43;;;;;;;16.90;100.00;95538.06;5066855;28;20120;-80
2022/07/26 08:44:09;;;;;;;10.77;6.13;;;;;;;16.88;100.00;95534.94;5063044;28;20415;-79
2022/07/26 08:46:37;;;;;;;10.75;6.05;;;;;;;16.82;100.00;95541.47;5069190;28;20075;-82
2022/07/26 08:49:05;;;;;;;7.88;5.53;;;;;;;16.89;100.00;95541.81;5071540;28;20044;-81
2022/07/26 08:51:31;;;;;;;10.57;5.07;;;;;;;16.90;100.00;95551.38;5070417;28;20040;-81
2022/07/26 08:54:00;;;;;;;12.77;5.95;;;;;;;16.84;100.00;95540.06;5071597;28;20036;-80
2022/07/26 08:56:26;;;;;;;11.13;5.95;;;;;;;16.93;100.00;95538.22;5071817;28;20048;-79
2022/07/26 08:58:51;;;;;;;14.05;4.95;;;;;;;16.89;100.00;95536.50;5061695;28;20109;-80
2022/07/26 09:01:17;;;;;;;11.63;6.13;;;;;;;16.83;100.00;95537.72;5065242;28;20509;-79
2022/07/26 09:03:44;;;;;;;9.10;5.70;;;;;;;16.76;100.00;95527.53;5083171;28;20049;-82
2022/07/26 09:06:28;;;;;;;8.40;5.18;;;;;;;16.84;100.00;95539.25;5065762;28;20097;-81
2022/07/26 09:09:09;;;;;;;9.32;4.95;;;;;;;16.91;100.00;95539.63;5061113;28;20043;-79
2022/07/26 09:11:35;;;;;;;11.25;5.10;;;;;;;16.99;100.00;95556.72;5064402;28;20045;-78
2022/07/26 09:14:04;;;;;;;8.13;5.10;;;;;;;17.06;100.00;95547.16;5060971;28;20103;-79
2022/07/26 09:16:29;;;;;;;12.18;6.35;;;;;;;17.25;100.00;95554.09;5067467;28;20045;-79
2022/07/26 09:19:15;;;;;;;11.90;5.43;;;;;;;17.27;100.00;95562.56;5076408;28;20099;-79
2022/07/26 09:21:40;;;;;;;9.43;5.60;;;;;;;17.28;100.00;95569.44;5062779;28;20060;-79
2022/07/26 09:24:06;;;;;;;8.02;5.00;;;;;;;17.43;100.00;95566.31;5067703;28;20121;-79
2022/07/26 09:26:32;;;;;;;11.15;4.93;;;;;;;17.52;100.00;95552.25;5079189;28;20028;-78
2022/07/26 09:29:11;;;;;;;9.25;5.18;;;;;;;17.58;100.00;95551.00;5065027;28;20048;-78
2022/07/26 09:31:38;;;;;;;11.32;5.05;;;;;;;17.74;100.00;95560.09;5075993;28;20451;-82
2022/07/26 09:34:05;;;;;;;8.90;4.47;;;;;;;17.63;100.00;95553.50;5072362;28;20465;-75
2022/07/26 09:36:31;;;;;;;10.32;4.90;;;;;;;17.66;100.00;95555.53;5071565;28;20112;-78
2022/07/26 09:39:01;;;;;;;8.30;5.15;;;;;;;17.88;100.00;95553.81;5068340;28;20513;-79
2022/07/26 09:41:35;;;;;;;6.55;4.38;;;;;;;17.83;100.00;95536.13;5079097;28;20047;-77
2022/07/26 09:44:19;;;;;;;7.97;4.53;;;;;;;17.89;100.00;95544.72;5069153;28;20154;-78
2022/07/26 09:47:15;;;;;;;7.53;4.60;;;;;;;17.88;100.00;95548.47;5073158;28;20528;-80
2022/07/26 09:49:41;;;;;;;6.78;4.07;;;;;;;17.92;100.00;95550.22;5073485;28;20037;-79
2022/07/26 09:52:18;;;;;;;11.00;5.75;;;;;;;17.86;100.00;95542.69;5070369;28;20122;-78
2022/07/26 09:54:46;;;;;;;6.38;4.43;;;;;;;17.71;100.00;95544.72;5072056;28;20040;-78
2022/07/26 09:57:18;;;;;;;5.95;4.38;;;;;;;17.73;100.00;95539.88;5068849;28;20040;-77
2022/07/26 09:59:44;;;;;;;7.60;4.65;;;;;;;17.77;100.00;95546.16;5072484;28;20040;-79
2022/07/26 10:02:12;;;;;;;7.75;4.65;;;;;;;17.98;100.00;95553.50;5074549;28;20052;-78
2022/07/26 10:04:40;;;;;;;7.43;4.78;;;;;;;18.11;100.00;95547.22;5067447;28;20032;-78
2022/07/26 10:07:06;;;;;;;7.82;4.93;;;;;;;18.48;100.00;95550.25;5069563;28;20036;-77
2022/07/26 10:09:39;;;;;;;8.52;4.88;;;;;;;18.48;100.00;95547.59;5082353;28;20044;-77
2022/07/26 10:12:06;;;;;;;11.05;5.03;;;;;;;18.58;100.00;95543.03;5062815;28;20043;-77
2022/07/26 10:14:31;;;;;;;12.02;5.30;;;;;;;18.72;100.00;95543.59;5068653;28;20036;-78
2022/07/26 10:16:57;;;;;;;10.55;5.30;;;;;;;18.64;100.00;95541.75;5071586;28;20037;-76
2022/07/26 10:19:39;;;;;;;8.07;4.93;;;;;;;19.07;100.00;95554.09;5070159;28;22380;-77
2022/07/26 10:22:31;;;;;;;10.73;4.90;;;;;;;19.40;100.00;95550.75;5064758;28;20036;-79
2022/07/26 10:25:18;;;;;;;8.48;4.63;;;;;;;19.45;100.00;95545.25;5066293;28;20036;-78
2022/07/26 10:27:49;;;;;;;6.38;4.53;;;;;;;19.69;100.00;95543.78;5065212;28;20097;-77
2022/07/26 10:30:14;;;;;;;7.75;4.85;;;;;;;19.92;100.00;95535.47;5063832;28;20067;-76
2022/07/26 10:32:44;;;;;;;10.88;4.10;;;;;;;20.11;100.00;95535.72;5068547;28;20037;-76
2022/07/26 10:35:35;;;;;;;9.63;4.90;;;;;;;20.34;100.00;95538.03;5068762;28;20041;-76
2022/07/26 10:38:03;;;;;;;7.25;4.32;;;;;;;20.65;100.00;95531.38;5067337;28;20115;-77
2022/07/26 10:40:30;;;;;;;7.55;3.53;;;;;;;21.08;100.00;95527.41;5066316;28;20079;-76
2022/07/26 10:43:16;;;;;;;7.97;4.50;;;;;;;21.52;100.00;95532.13;5070936;28;20120;-76
2022/07/26 10:45:43;;;;;;;5.05;3.58;;;;;;;21.50;100.00;95537.03;5067884;28;20044;-76
2022/07/26 10:48:24;;;;;;;8.25;3.83;;;;;;;21.29;100.00;95533.38;5067431;28;20141;-77
2022/07/26 10:50:51;;;;;;;7.32;3.30;;;;;;;20.91;100.00;95537.19;5064109;28;20044;-75
2022/07/26 10:53:22;;;;;;;6.05;3.35;;;;;;;21.24;100.00;95530.16;5070483;28;20040;-76
2022/07/26 10:55:55;;;;;;;6.03;3.13;;;;;;;21.74;100.00;95536.19;5070128;28;20040;-76
2022/07/26 10:58:23;;;;;;;6.10;3.30;;;;;;;21.52;100.00;95530.25;5058034;28;20063;-77
2022/07/26 11:00:55;;;;;;;8.23;3.38;;;;;;;21.56;100.00;95525.75;5066822;28;20107;-77
2022/07/26 11:03:21;;;;;;;6.38;2.95;;;;;;;21.49;100.00;95525.50;5068247;28;20060;-77
2022/07/26 11:05:48;;;;;;;4.15;2.63;;;;;;;21.77;100.00;95532.84;5066256;28;20037;-77
2022/07/26 11:08:13;;;;;;;5.68;3.10;;;;;;;21.51;100.00;95534.03;5065886;28;20071;-76
2022/07/26 11:10:44;;;;;;;4.72;2.60;;;;;;;21.55;100.00;95540.28;5066333;28;20060;-77
2022/07/26 11:13:11;;;;;;;6.68;2.70;;;;;;;21.26;100.00;95533.25;5065959;28;20076;-76
2022/07/26 11:15:40;;;;;;;3.85;2.80;;;;;;;21.41;100.00;95534.47;5059089;28;20502;-76
2022/07/26 11:18:14;;;;;;;4.88;2.53;;;;;;;21.75;100.00;95529.69;5066160;28;20281;-76
2022/07/26 11:20:41;;;;;;;4.88;3.08;;;;;;;21.61;100.00;95528.19;5064366;28;20408;-76